createdAt,value
2022-09-30T00:04:13.252Z,12.2
2022-09-30T00:09:50.683Z,12.2
2022-09-30T00:15:27.486Z,12.2
2022-09-30T00:20:34.351Z,12.2
2022-09-30T00:25:40.326Z,12.1
2022-09-30T00:31:17.192Z,12.1
2022-09-30T00:36:55.320Z,12.1
2022-09-30T00:42:31.642Z,12.1
2022-09-30T00:48:13.569Z,12.1
2022-09-30T00:53:36.121Z,12.2
2022-09-30T00:59:12.041Z,12.2
2022-09-30T01:04:48.921Z,12.3
2022-09-30T01:10:27.015Z,12.3
2022-09-30T01:16:07.268Z,12.3
2022-09-30T01:21:29.594Z,12.3
2022-09-30T01:27:12.759Z,12.3
2022-09-30T01:32:33.710Z,12.3
2022-09-30T01:37:55.255Z,12.4
2022-09-30T01:43:17.776Z,12.3
2022-09-30T01:48:54.338Z,12.2
2022-09-30T01:54:30.403Z,12.1
2022-09-30T02:00:08.445Z,12.1
2022-09-30T02:05:44.734Z,12
2022-09-30T02:11:22.342Z,12
2022-09-30T02:16:59.920Z,12
2022-09-30T02:22:36.659Z,12.1
2022-09-30T02:28:13.694Z,12.1
2022-09-30T02:33:51.835Z,12.1
2022-09-30T02:38:58.135Z,12.1
2022-09-30T02:44:19.337Z,12.2
2022-09-30T02:55:02.593Z,12.3
2022-09-30T03:00:46.580Z,12.3
2022-09-30T03:06:24.349Z,12.3
2022-09-30T03:11:46.222Z,12.3
2022-09-30T03:17:26.402Z,12.3
2022-09-30T03:22:34.121Z,12.3
2022-09-30T03:27:54.764Z,12.4
2022-09-30T03:33:33.825Z,12.4
2022-09-30T03:39:11.237Z,12.4
2022-09-30T03:44:47.385Z,12.3
2022-09-30T03:50:24.239Z,12.3
2022-09-30T03:56:01.546Z,12.3
2022-09-30T04:01:38.025Z,12.3
2022-09-30T04:07:15.221Z,12.3
2022-09-30T04:12:53.622Z,12.3
2022-09-30T04:18:33.857Z,12.3
2022-09-30T04:23:55.924Z,12.3
2022-09-30T04:29:18.042Z,12.3
2022-09-30T04:34:59.362Z,12.3
2022-09-30T04:40:37.186Z,12.3
2022-09-30T04:46:00.063Z,12.3
2022-09-30T04:51:41.995Z,12.3
2022-09-30T04:57:04.202Z,12.4
2022-09-30T05:02:27.650Z,12.4
2022-09-30T05:08:05.190Z,12.4
2022-09-30T05:13:47.377Z,12.6
2022-09-30T05:19:24.920Z,12.6
2022-09-30T05:25:07.005Z,12.7
2022-09-30T05:30:44.744Z,12.8
2022-09-30T05:36:22.986Z,13
2022-09-30T05:42:00.555Z,13.3
2022-09-30T05:47:38.442Z,13.6
2022-09-30T05:53:21.637Z,14.1
2022-09-30T05:59:05.771Z,14.5
2022-09-30T06:04:51.563Z,15
2022-09-30T06:10:36.351Z,15.7
2022-09-30T06:16:13.989Z,16.3
2022-09-30T06:21:52.052Z,16.9
2022-09-30T06:27:31.594Z,17.6
2022-09-30T06:33:10.798Z,18.1
2022-09-30T06:38:48.458Z,18.5
2022-09-30T06:44:51.596Z,18.9
2022-09-30T06:51:57.958Z,19.4
2022-09-30T06:57:35.959Z,19.9
2022-09-30T07:03:14.491Z,20.6
2022-09-30T07:08:54.296Z,21.3
2022-09-30T07:14:31.822Z,21.9
2022-09-30T07:20:10.324Z,22.9
2022-09-30T07:25:48.013Z,24.5
2022-09-30T07:32:23.459Z,26.8
2022-09-30T07:38:02.881Z,28.8
2022-09-30T07:43:41.089Z,32.1
2022-09-30T07:49:22.304Z,36
2022-09-30T07:55:07.066Z,43.6
2022-09-30T08:01:36.622Z,46.8
2022-09-30T08:07:19.141Z,43.1
2022-09-30T08:12:59.122Z,46.8
2022-09-30T08:18:37.386Z,48.1
2022-09-30T08:24:21.769Z,49.4
2022-09-30T08:30:30.073Z,50.6
2022-09-30T08:36:08.234Z,51.4
2022-09-30T08:41:48.024Z,52.4
2022-09-30T08:47:53.666Z,53.6
2022-09-30T08:53:45.056Z,54.6
2022-09-30T08:59:32.525Z,55.6
2022-09-30T09:05:11.032Z,56.6
2022-09-30T09:10:53.379Z,57.3
2022-09-30T09:16:31.408Z,58.3
2022-09-30T09:22:22.516Z,59.2
2022-09-30T09:28:02.531Z,59.9
2022-09-30T09:33:25.999Z,60.4
2022-09-30T09:38:51.731Z,60.7
2022-09-30T09:44:38.265Z,60.7
2022-09-30T09:50:01.220Z,61.3
2022-09-30T09:55:39.842Z,62
2022-09-30T10:01:26.606Z,62.5
2022-09-30T10:07:04.053Z,63.1
2022-09-30T10:12:26.505Z,63
2022-09-30T10:18:04.475Z,62.1
2022-09-30T10:23:27.262Z,61.6
2022-09-30T10:29:08.562Z,61.3
2022-09-30T10:34:51.909Z,61
2022-09-30T10:40:34.659Z,60.9
2022-09-30T10:46:21.138Z,61.4
2022-09-30T10:51:53.073Z,61.4
2022-09-30T10:57:21.756Z,61.3
2022-09-30T11:02:49.328Z,61.6
2022-09-30T11:08:14.393Z,62.2
2022-09-30T11:13:36.600Z,62
2022-09-30T11:19:14.935Z,62.9
2022-09-30T11:24:52.542Z,63.4
2022-09-30T11:30:17.531Z,64.3
2022-09-30T11:35:42.544Z,63.3
2022-09-30T11:41:20.020Z,64.5
2022-09-30T11:46:57.662Z,61.5
2022-09-30T11:52:20.028Z,54.3
2022-09-30T11:57:57.932Z,53.7
2022-09-30T12:03:45.221Z,55
2022-09-30T12:09:24.007Z,54.5
2022-09-30T12:20:20.879Z,50.1
2022-09-30T12:25:43.387Z,49.5
2022-09-30T12:31:23.122Z,53.1
2022-09-30T12:37:01.084Z,58
2022-09-30T12:42:39.144Z,62.8
2022-09-30T12:48:17.675Z,54.3
2022-09-30T12:53:55.293Z,55.4
2022-09-30T12:59:32.925Z,58.8
2022-09-30T13:05:11.117Z,61.1
2022-09-30T13:10:51.403Z,54.2
2022-09-30T13:16:14.393Z,55.4
2022-09-30T13:21:53.014Z,57.7
2022-09-30T13:27:20.135Z,59.1
2022-09-30T13:32:58.846Z,57.9
2022-09-30T13:38:36.593Z,53.3
2022-09-30T13:44:39.721Z,53.4
2022-09-30T13:50:04.333Z,54
2022-09-30T13:55:10.408Z,53.9
2022-09-30T14:00:48.547Z,52.6
2022-09-30T14:06:26.851Z,51.4
2022-09-30T14:12:10.353Z,50.6
2022-09-30T14:17:49.099Z,48.8
2022-09-30T14:23:28.301Z,47.1
2022-09-30T14:29:10.407Z,45.9
2022-09-30T14:34:50.140Z,44.5
2022-09-30T14:41:57.221Z,42.5
2022-09-30T14:47:41.635Z,41
2022-09-30T14:53:25.010Z,40
2022-09-30T14:59:03.058Z,38.9
2022-09-30T15:04:41.629Z,37.6
2022-09-30T15:10:22.112Z,36.3
2022-09-30T15:16:00.047Z,35
2022-09-30T15:21:37.529Z,33.9
2022-09-30T15:27:16.056Z,32.7
2022-09-30T15:32:54.496Z,31.4
2022-09-30T15:38:36.907Z,30.1
2022-09-30T15:44:19.179Z,28.8
2022-09-30T15:49:58.289Z,27.8
2022-09-30T15:55:40.050Z,26.8
2022-09-30T16:01:18.681Z,26
2022-09-30T16:06:56.619Z,25.3
2022-09-30T16:12:36.933Z,24.6
2022-09-30T16:18:17.475Z,24
2022-09-30T16:23:55.861Z,23.5
2022-09-30T16:29:35.473Z,23
2022-09-30T16:35:13.077Z,22.5
2022-09-30T16:40:50.911Z,22
2022-09-30T16:46:33.671Z,21.6
2022-09-30T16:57:38.337Z,20.8
2022-09-30T17:03:00.408Z,20.4
2022-09-30T17:08:38.255Z,20.1
2022-09-30T17:14:16.082Z,19.8
2022-09-30T17:19:38.108Z,19.5
2022-09-30T17:25:15.730Z,19.3
2022-09-30T17:31:00.484Z,19.1
2022-09-30T17:36:37.888Z,18.9
2022-09-30T17:42:17.723Z,18.5
2022-09-30T17:47:28.825Z,18.2
2022-09-30T17:53:06.425Z,17.8
2022-09-30T17:58:48.829Z,17.4
2022-09-30T18:04:12.590Z,17.1
2022-09-30T18:09:50.675Z,16.8
2022-09-30T18:15:28.932Z,16.5
2022-09-30T18:21:07.779Z,16.3
2022-09-30T18:26:33.079Z,16.1
2022-09-30T18:31:57.454Z,16
2022-09-30T18:37:20.040Z,15.9
2022-09-30T18:42:43.770Z,15.6
2022-09-30T18:48:06.625Z,15.5
2022-09-30T18:53:44.552Z,15.3
2022-09-30T18:59:23.316Z,15.1
2022-09-30T19:05:03.639Z,15.1
2022-09-30T19:10:41.313Z,15
2022-09-30T19:16:19.094Z,14.8
2022-09-30T19:22:00.263Z,14.8
2022-09-30T19:27:37.593Z,14.8
2022-09-30T19:33:16.574Z,14.6
2022-09-30T19:40:55.302Z,14.4
2022-09-30T19:46:38.482Z,14.2
2022-09-30T19:52:32.869Z,14.1
2022-09-30T19:59:11.102Z,14
2022-09-30T20:04:39.595Z,13.9
2022-09-30T20:10:01.653Z,13.6
2022-09-30T20:15:43.927Z,13.5
2022-09-30T20:21:08.794Z,13.4
2022-09-30T20:26:46.293Z,13.3
2022-09-30T20:32:10.288Z,13.2
2022-09-30T20:37:49.111Z,13.1
2022-09-30T20:43:26.859Z,13.1
2022-09-30T20:49:07.618Z,13
2022-09-30T20:54:46.032Z,12.9
2022-09-30T21:00:48.392Z,12.8
2022-09-30T21:06:26.753Z,12.8
2022-09-30T21:12:05.220Z,12.7
2022-09-30T21:17:27.863Z,12.6
2022-09-30T21:23:05.689Z,12.6
2022-09-30T21:28:27.390Z,12.5
2022-09-30T21:33:55.759Z,12.4
2022-09-30T21:39:18.079Z,12.3
2022-09-30T21:44:56.472Z,12.1
2022-09-30T21:50:18.151Z,12
2022-09-30T21:56:00.221Z,11.9
2022-09-30T22:01:38.406Z,11.9
2022-09-30T22:07:00.406Z,11.8
2022-09-30T22:12:38.558Z,11.8
2022-09-30T22:18:16.712Z,11.8
2022-09-30T22:23:54.233Z,11.8
2022-09-30T22:29:31.601Z,11.7
2022-09-30T22:35:09.666Z,11.6
2022-09-30T22:40:34.570Z,11.6
2022-09-30T22:45:56.287Z,11.4
2022-09-30T22:51:34.135Z,11.4
2022-09-30T22:56:55.725Z,11.3
2022-09-30T23:02:16.674Z,11.2
2022-09-30T23:07:39.038Z,11.1
2022-09-30T23:13:16.661Z,11.1
2022-09-30T23:18:54.238Z,10.9
2022-09-30T23:24:31.292Z,10.8
2022-09-30T23:30:08.204Z,10.7
2022-09-30T23:35:45.925Z,10.6
2022-09-30T23:40:53.184Z,10.6
2022-09-30T23:46:30.706Z,10.6
2022-09-30T23:52:12.542Z,10.5
2022-09-30T23:57:49.281Z,10.4
